Xin Dan Dong — BPBY — position and weather

sailwx.info

Track history (hours):
 
Tides and Currents Weather Stations Pressure Air Temp Water Temp Dewpoint Dewpoint Depression Visibility Wind Speed Wind Dir Waves Ship Positions

Xin Dan Dong

Last reported at 2015-May-24 16:15 UTC. Time now 2015-May-25 05:07 UTC.
Position N 27°56' E 122°08'.

Length 263 m; draft 12.8 m.

Type: Cargo ship. MMSI: 413153000.

Date/timePositionNaut miles runAvg speedWind from/ knotsBaromVisibWave heightAir tempDewpointWater temp
2015-May-24 16:15N 27°56' E 122°08'912.6
2015-May-24 15:32N 28°03' E 122°13'1312.5
2015-May-24 14:31N 28°14' E 122°21'4212.7
2015-May-24 11:15N 28°49' E 122°47'7513.1
2015-May-24 05:32N 29°60' E 123°14'1312.0
2015-May-24 04:27N 30°13' E 123°14'1212.0
2015-May-24 03:27N 30°25' E 123°14'1212.2
2015-May-24 02:30N 30°36' E 123°14'1212.6
2015-May-24 01:33N 30°48' E 123°14'12712.4
2015-May-23 15:23N 32°55' E 123°14'1214.1
2015-May-23 14:30N 33°07' E 123°15'7113.4
2015-May-23 09:12N 34°18' E 123°14'1512.8
2015-May-23 08:04N 34°33' E 123°14'8912.8
2015-May-23 01:04N 36°02' E 123°14'1912.3
2015-May-22 23:33N 36°21' E 123°14'1312.1
2015-May-22 22:26N 36°34' E 123°14'1112.3
2015-May-22 21:33N 36°45' E 123°14'1313.2
2015-May-22 20:33N 36°58' E 123°14'1413.7
2015-May-22 19:33N 37°12' E 123°11'1414.2
2015-May-22 18:33N 37°25' E 123°05'1414.1
2015-May-22 17:33N 37°37' E 122°57'3112.9
2015-May-22 15:11N 38°00' E 122°31'2212.1
2015-May-22 13:22N 38°19' E 122°17'1012.1
2015-May-22 12:33N 38°28' E 122°11'1212.3
2015-May-22 11:34N 38°39' E 122°03'1512.1
2015-May-22 10:18N 38°53' E 121°57'2 0.1
2015-May-21 12:32N 38°55' E 121°57'8 8.3
2015-May-21 11:33N 38°48' E 121°53'1312.9
2015-May-21 10:33N 38°36' E 121°46'1211.9
2015-May-21 09:33N 38°29' E 121°33'1312.5
2015-May-21 08:33N 38°27' E 121°17'2210.9
2015-May-21 06:33N 38°35' E 120°52'1010.5
2015-May-21 05:33N 38°45' E 120°48'1211.4
2015-May-21 04:33N 38°57' E 120°48'1212.4
2015-May-21 03:33N 39°09' E 120°48'100 7.6
2015-May-20 14:25N 40°48' E 121°03'0 0.0
2015-May-20 13:31N 40°48' E 121°03'0 0.0
2015-May-20 12:07N 40°48' E 121°03'0 0.0
2015-May-20 08:19N 40°48' E 121°03'172 7.2
2015-May-19 08:33N 38°50' E 118°20'4 0.8
2015-May-19 03:21N 38°54' E 118°17'0 0.0
2015-May-18 19:18N 38°54' E 118°17'0 0.1
2015-May-18 18:24N 38°54' E 118°17'0 0.1
2015-May-18 17:18N 38°54' E 118°17'0 0.0
2015-May-18 14:30N 38°54' E 118°17'0 0.0
2015-May-18 10:06N 38°54' E 118°17'0 0.0
2015-May-17 18:09N 38°54' E 118°17'0 0.0
2015-May-17 05:30N 38°54' E 118°17'0 0.0
2015-May-17 02:30N 38°54' E 118°17'0 0.0
2015-May-17 01:30N 38°54' E 118°17'0 0.0
2015-May-16 19:18N 38°54' E 118°17'0 0.1
2015-May-16 16:30N 38°54' E 118°17'0 0.0
2015-May-16 10:24N 38°54' E 118°17'0 0.0
2015-May-16 08:30N 38°54' E 118°17'0 0.0
2015-May-16 04:24N 38°54' E 118°17'0 0.0
2015-May-16 02:30N 38°54' E 118°17'0 0.0
2015-May-16 01:24N 38°54' E 118°17'0 0.0
2015-May-15 18:30N 38°54' E 118°17'0 0.1
2015-May-15 14:06N 38°54' E 118°17'0 0.0
2015-May-15 12:18N 38°54' E 118°17'0 0.1
2015-May-15 10:30N 38°54' E 118°17'0 0.1
2015-May-15 09:24N 38°54' E 118°17'0 0.0
2015-May-15 08:30N 38°54' E 118°17'0 0.0
2015-May-15 07:24N 38°54' E 118°17'0 0.1
2015-May-15 06:30N 38°54' E 118°17'0 0.1
2015-May-15 05:12N 38°54' E 118°17'0 0.1
2015-May-15 04:27N 38°54' E 118°17'0 0.0
2015-May-14 22:24N 38°54' E 118°17'0 0.2
2015-May-14 20:06N 38°54' E 118°17'  
Track history (hours):
 
Tides and Currents Weather Stations Pressure Air Temp Water Temp Dewpoint Dewpoint Depression Visibility Wind Speed Wind Dir Waves Ship Positions

Xin Dan Dong

Last reported at 2015-May-24 16:15 UTC. Time now 2015-May-25 05:07 UTC.
Position N 27°56' E 122°08'.

Length 263 m; draft 12.8 m.

Type: Cargo ship. MMSI: 413153000.

Date/timePositionNaut miles runAvg speedWind from/ knotsBaromVisibWave heightAir tempDewpointWater temp
2015-May-24 16:15N 27°56' E 122°08'912.6
2015-May-24 15:32N 28°03' E 122°13'1312.5
2015-May-24 14:31N 28°14' E 122°21'4212.7
2015-May-24 11:15N 28°49' E 122°47'7513.1
2015-May-24 05:32N 29°60' E 123°14'1312.0
2015-May-24 04:27N 30°13' E 123°14'1212.0
2015-May-24 03:27N 30°25' E 123°14'1212.2
2015-May-24 02:30N 30°36' E 123°14'1212.6
2015-May-24 01:33N 30°48' E 123°14'12712.4
2015-May-23 15:23N 32°55' E 123°14'1214.1
2015-May-23 14:30N 33°07' E 123°15'7113.4
2015-May-23 09:12N 34°18' E 123°14'1512.8
2015-May-23 08:04N 34°33' E 123°14'8912.8
2015-May-23 01:04N 36°02' E 123°14'1912.3
2015-May-22 23:33N 36°21' E 123°14'1312.1
2015-May-22 22:26N 36°34' E 123°14'1112.3
2015-May-22 21:33N 36°45' E 123°14'1313.2
2015-May-22 20:33N 36°58' E 123°14'1413.7
2015-May-22 19:33N 37°12' E 123°11'1414.2
2015-May-22 18:33N 37°25' E 123°05'1414.1
2015-May-22 17:33N 37°37' E 122°57'3112.9
2015-May-22 15:11N 38°00' E 122°31'2212.1
2015-May-22 13:22N 38°19' E 122°17'1012.1
2015-May-22 12:33N 38°28' E 122°11'1212.3
2015-May-22 11:34N 38°39' E 122°03'1512.1
2015-May-22 10:18N 38°53' E 121°57'2 0.1
2015-May-21 12:32N 38°55' E 121°57'8 8.3
2015-May-21 11:33N 38°48' E 121°53'1312.9
2015-May-21 10:33N 38°36' E 121°46'1211.9
2015-May-21 09:33N 38°29' E 121°33'1312.5
2015-May-21 08:33N 38°27' E 121°17'2210.9
2015-May-21 06:33N 38°35' E 120°52'1010.5
2015-May-21 05:33N 38°45' E 120°48'1211.4
2015-May-21 04:33N 38°57' E 120°48'1212.4
2015-May-21 03:33N 39°09' E 120°48'100 7.6
2015-May-20 14:25N 40°48' E 121°03'0 0.0
2015-May-20 13:31N 40°48' E 121°03'0 0.0
2015-May-20 12:07N 40°48' E 121°03'0 0.0
2015-May-20 08:19N 40°48' E 121°03'172 7.2
2015-May-19 08:33N 38°50' E 118°20'4 0.8
2015-May-19 03:21N 38°54' E 118°17'0 0.0
2015-May-18 19:18N 38°54' E 118°17'0 0.1
2015-May-18 18:24N 38°54' E 118°17'0 0.1
2015-May-18 17:18N 38°54' E 118°17'0 0.0
2015-May-18 14:30N 38°54' E 118°17'0 0.0
2015-May-18 10:06N 38°54' E 118°17'0 0.0
2015-May-17 18:09N 38°54' E 118°17'0 0.0
2015-May-17 05:30N 38°54' E 118°17'0 0.0
2015-May-17 02:30N 38°54' E 118°17'0 0.0
2015-May-17 01:30N 38°54' E 118°17'0 0.0
2015-May-16 19:18N 38°54' E 118°17'0 0.1
2015-May-16 16:30N 38°54' E 118°17'0 0.0
2015-May-16 10:24N 38°54' E 118°17'0 0.0
2015-May-16 08:30N 38°54' E 118°17'0 0.0
2015-May-16 04:24N 38°54' E 118°17'0 0.0
2015-May-16 02:30N 38°54' E 118°17'0 0.0
2015-May-16 01:24N 38°54' E 118°17'0 0.0
2015-May-15 18:30N 38°54' E 118°17'0 0.1
2015-May-15 14:06N 38°54' E 118°17'0 0.0
2015-May-15 12:18N 38°54' E 118°17'0 0.1
2015-May-15 10:30N 38°54' E 118°17'0 0.1
2015-May-15 09:24N 38°54' E 118°17'0 0.0
2015-May-15 08:30N 38°54' E 118°17'0 0.0
2015-May-15 07:24N 38°54' E 118°17'0 0.1
2015-May-15 06:30N 38°54' E 118°17'0 0.1
2015-May-15 05:12N 38°54' E 118°17'0 0.1
2015-May-15 04:27N 38°54' E 118°17'0 0.0
2015-May-14 22:24N 38°54' E 118°17'0 0.2
2015-May-14 20:06N 38°54' E 118°17'  

Dump ship's entire track history